createdAt,value
2023-01-13T00:01:29.206Z,2.70
2023-01-13T00:03:57.183Z,2.70
2023-01-13T00:06:26.342Z,2.70
2023-01-13T00:08:54.154Z,2.85
2023-01-13T00:11:23.061Z,3.20
2023-01-13T00:13:50.743Z,3.13
2023-01-13T00:16:19.815Z,3.35
2023-01-13T00:18:49.158Z,3.22
2023-01-13T00:21:20.157Z,3.03
2023-01-13T00:23:48.651Z,3.20
2023-01-13T00:26:19.744Z,3.75
2023-01-13T00:28:48.227Z,3.22
2023-01-13T00:31:21.465Z,3.00
2023-01-13T00:33:51.095Z,3.60
2023-01-13T00:36:21.082Z,3.42
2023-01-13T00:38:49.057Z,3.65
2023-01-13T00:41:22.609Z,5.13
2023-01-13T00:43:50.933Z,4.95
2023-01-13T00:46:21.421Z,5.57
2023-01-13T00:48:49.967Z,4.97
2023-01-13T00:51:20.402Z,3.95
2023-01-13T00:53:50.944Z,4.03
2023-01-13T00:56:41.002Z,3.92
2023-01-13T00:59:13.677Z,3.95
2023-01-13T01:01:42.213Z,3.50
2023-01-13T01:04:10.344Z,3.15
2023-01-13T01:06:38.718Z,3.10
2023-01-13T01:09:06.535Z,2.88
2023-01-13T01:11:35.141Z,2.40
2023-01-13T01:14:04.298Z,2.78
2023-01-13T01:16:34.429Z,2.90
2023-01-13T01:19:02.559Z,2.97
2023-01-13T01:21:30.315Z,2.70
2023-01-13T01:24:01.474Z,3.33
2023-01-13T01:26:30.713Z,2.92
2023-01-13T01:29:02.347Z,2.83
2023-01-13T01:31:33.258Z,2.53
2023-01-13T01:34:02.026Z,2.80
2023-01-13T01:36:35.191Z,2.20
2023-01-13T01:39:04.483Z,2.40
2023-01-13T01:41:34.308Z,2.60
2023-01-13T01:44:26.873Z,2.20
2023-01-13T01:46:56.636Z,1.88
2023-01-13T01:49:33.500Z,2.10
2023-01-13T01:52:07.015Z,1.80
2023-01-13T01:54:59.977Z,1.92
2023-01-13T01:57:33.224Z,2.45
2023-01-13T02:00:02.304Z,2.50
2023-01-13T02:02:42.274Z,2.17
2023-01-13T02:05:11.212Z,2.03
2023-01-13T02:07:41.414Z,2.50
2023-01-13T02:10:12.982Z,2.88
2023-01-13T02:12:44.444Z,2.40
2023-01-13T02:15:15.379Z,2.33
2023-01-13T02:18:02.017Z,2.60
2023-01-13T02:20:44.811Z,2.20
2023-01-13T02:23:46.558Z,2.85
2023-01-13T02:26:17.155Z,2.30
2023-01-13T02:29:34.459Z,2.35
2023-01-13T02:32:15.056Z,2.15
2023-01-13T02:34:52.317Z,2.20
2023-01-13T02:40:38.765Z,2.10
2023-01-13T02:43:36.512Z,2.00
2023-01-13T02:46:28.398Z,2.03
2023-01-13T02:49:01.473Z,2.00
2023-01-13T02:51:31.809Z,1.98
2023-01-13T02:54:12.695Z,2.05
2023-01-13T02:56:44.577Z,1.98
2023-01-13T02:59:13.327Z,2.50
2023-01-13T03:01:42.924Z,2.08
2023-01-13T03:04:15.714Z,2.30
2023-01-13T03:07:02.398Z,2.28
2023-01-13T03:09:36.788Z,2.42
2023-01-13T03:12:43.525Z,2.10
2023-01-13T03:15:11.216Z,2.58
2023-01-13T03:18:04.821Z,2.00
2023-01-13T03:20:47.922Z,2.22
2023-01-13T03:23:47.960Z,1.83
2023-01-13T03:26:49.513Z,2.13
2023-01-13T03:29:32.715Z,1.83
2023-01-13T03:32:07.313Z,2.20
2023-01-13T03:34:44.288Z,1.90
2023-01-13T03:37:14.768Z,2.55
2023-01-13T03:39:47.986Z,1.95
2023-01-13T03:42:23.326Z,2.28
2023-01-13T03:45:14.021Z,2.40
2023-01-13T03:47:54.239Z,2.40
2023-01-13T03:50:28.670Z,1.70
2023-01-13T03:53:02.854Z,1.95
2023-01-13T03:55:36.590Z,1.90
2023-01-13T03:58:18.121Z,1.90
2023-01-13T04:01:17.197Z,1.88
2023-01-13T04:03:50.936Z,2.30
2023-01-13T04:06:38.379Z,1.98
2023-01-13T04:09:24.219Z,2.10
2023-01-13T04:12:09.414Z,1.65
2023-01-13T04:14:38.223Z,1.60
2023-01-13T04:17:06.891Z,1.80
2023-01-13T04:19:34.736Z,2.03
2023-01-13T04:22:02.709Z,2.10
2023-01-13T04:24:30.989Z,1.95
2023-01-13T04:26:58.756Z,1.80
2023-01-13T04:29:26.809Z,2.30
2023-01-13T04:31:54.943Z,2.42
2023-01-13T04:34:22.654Z,2.10
2023-01-13T04:36:50.306Z,2.20
2023-01-13T04:39:18.196Z,2.50
2023-01-13T04:42:02.731Z,2.60
2023-01-13T04:44:35.280Z,2.33
2023-01-13T04:47:03.520Z,2.80
2023-01-13T04:49:31.614Z,2.53
2023-01-13T04:51:59.509Z,2.67
2023-01-13T04:54:27.296Z,2.70
2023-01-13T04:56:55.087Z,2.22
2023-01-13T04:59:23.059Z,2.30
2023-01-13T05:01:50.950Z,2.50
2023-01-13T05:04:18.970Z,2.40
2023-01-13T05:06:46.730Z,2.60
2023-01-13T05:09:16.185Z,2.60
2023-01-13T05:12:02.524Z,2.38
2023-01-13T05:14:48.954Z,2.63
2023-01-13T05:17:23.045Z,2.50
2023-01-13T05:19:51.341Z,2.97
2023-01-13T05:22:37.750Z,2.67
2023-01-13T05:25:24.507Z,2.50
2023-01-13T05:27:58.034Z,2.90
2023-01-13T05:30:28.492Z,3.60
2023-01-13T05:32:57.202Z,3.42
2023-01-13T05:35:25.282Z,3.63
2023-01-13T05:37:55.164Z,3.65
2023-01-13T05:40:41.917Z,3.88
2023-01-13T05:43:21.333Z,3.28
2023-01-13T05:46:09.680Z,3.65
2023-01-13T05:48:39.986Z,3.20
2023-01-13T05:51:09.996Z,3.13
2023-01-13T05:53:38.310Z,3.53
2023-01-13T05:56:07.763Z,3.17
2023-01-13T05:58:35.836Z,3.42
2023-01-13T06:01:08.686Z,3.78
2023-01-13T06:03:37.393Z,5.75
2023-01-13T06:06:05.577Z,4.80
2023-01-13T06:08:36.945Z,5.18
2023-01-13T06:11:06.129Z,4.80
2023-01-13T06:13:33.920Z,4.85
2023-01-13T06:16:01.825Z,4.68
2023-01-13T06:18:29.758Z,8.60
2023-01-13T06:20:57.690Z,8.40
2023-01-13T06:23:26.746Z,7.03
2023-01-13T06:26:12.428Z,7.70
2023-01-13T06:28:40.237Z,6.05
2023-01-13T06:31:10.431Z,6.68
2023-01-13T06:33:44.074Z,5.38
2023-01-13T06:36:23.277Z,5.75
2023-01-13T06:38:56.348Z,6.20
2023-01-13T06:41:43.599Z,6.35
2023-01-13T06:44:11.678Z,6.00
2023-01-13T06:46:39.516Z,6.20
2023-01-13T06:49:07.606Z,5.38
2023-01-13T06:51:37.581Z,5.70
2023-01-13T06:54:05.846Z,5.45
2023-01-13T06:56:33.770Z,5.35
2023-01-13T06:59:02.606Z,4.97
2023-01-13T07:01:30.725Z,4.68
2023-01-13T07:03:58.577Z,5.00
2023-01-13T07:06:26.416Z,6.05
2023-01-13T07:08:54.391Z,4.85
2023-01-13T07:11:22.247Z,4.55
2023-01-13T07:14:08.555Z,4.32
2023-01-13T07:16:36.452Z,4.85
2023-01-13T07:19:04.536Z,4.65
2023-01-13T07:21:32.252Z,4.85
2023-01-13T07:24:00.227Z,4.50
2023-01-13T07:26:28.044Z,6.00
2023-01-13T07:28:55.959Z,4.90
2023-01-13T07:31:23.997Z,5.28
2023-01-13T07:33:51.774Z,4.57
2023-01-13T07:36:19.605Z,4.32
2023-01-13T07:38:47.406Z,4.43
2023-01-13T07:41:34.000Z,4.53
2023-01-13T07:44:07.344Z,4.20
2023-01-13T07:46:35.008Z,4.40
2023-01-13T07:49:03.273Z,4.25
2023-01-13T07:51:31.220Z,3.92
2023-01-13T07:53:58.910Z,3.78
2023-01-13T07:56:26.733Z,3.95
2023-01-13T07:58:54.569Z,3.75
2023-01-13T08:01:22.628Z,3.60
2023-01-13T08:03:50.525Z,3.97
2023-01-13T08:06:18.276Z,3.90
2023-01-13T08:08:46.139Z,4.10
2023-01-13T08:11:14.033Z,4.00
2023-01-13T08:13:41.881Z,3.60
2023-01-13T08:16:13.400Z,4.05
2023-01-13T08:18:43.974Z,4.43
2023-01-13T08:21:14.026Z,3.60
2023-01-13T08:23:43.262Z,3.90
2023-01-13T08:26:17.388Z,3.72
2023-01-13T08:28:46.006Z,3.70
2023-01-13T08:31:16.751Z,3.90
2023-01-13T08:33:44.875Z,3.70
2023-01-13T08:36:14.026Z,4.60
2023-01-13T08:38:42.519Z,6.57
2023-01-13T08:41:13.413Z,7.28
2023-01-13T08:43:41.543Z,6.38
2023-01-13T08:46:10.786Z,6.65
2023-01-13T08:48:38.758Z,7.28
2023-01-13T08:51:09.170Z,6.13
2023-01-13T08:53:36.992Z,5.80
2023-01-13T08:56:11.958Z,6.05
2023-01-13T08:58:40.806Z,6.47
2023-01-13T09:01:10.517Z,5.50
2023-01-13T09:03:39.466Z,5.45
2023-01-13T09:06:07.178Z,4.88
2023-01-13T09:08:35.051Z,4.88
2023-01-13T09:11:22.779Z,4.28
2023-01-13T09:13:50.729Z,4.20
2023-01-13T09:16:18.708Z,3.92
2023-01-13T09:18:47.898Z,3.88
2023-01-13T09:21:17.059Z,3.60
2023-01-13T09:23:44.896Z,3.70
2023-01-13T09:26:16.748Z,4.43
2023-01-13T09:28:45.115Z,3.80
2023-01-13T09:31:14.244Z,4.22
2023-01-13T09:34:00.468Z,4.57
2023-01-13T09:36:28.552Z,3.83
2023-01-13T09:38:56.458Z,4.32
2023-01-13T09:41:48.051Z,4.18
2023-01-13T09:44:40.024Z,4.05
2023-01-13T09:47:16.407Z,3.80
2023-01-13T09:49:44.397Z,4.23
2023-01-13T09:52:26.965Z,3.92
2023-01-13T09:54:54.912Z,4.22
2023-01-13T09:57:22.730Z,3.85
2023-01-13T09:59:51.112Z,4.00
2023-01-13T10:02:51.213Z,4.43
2023-01-13T10:05:34.879Z,3.40
2023-01-13T10:08:16.186Z,3.30
2023-01-13T10:10:49.975Z,3.33
2023-01-13T10:13:31.068Z,3.60
2023-01-13T10:16:10.870Z,4.03
2023-01-13T10:19:05.235Z,3.97
2023-01-13T10:21:49.772Z,4.00
2023-01-13T10:24:59.248Z,4.25
2023-01-13T10:27:35.873Z,4.07
2023-01-13T10:30:31.514Z,4.30
2023-01-13T10:33:01.725Z,4.78
2023-01-13T10:35:50.964Z,4.25
2023-01-13T10:38:46.089Z,4.38
2023-01-13T10:41:17.110Z,4.35
2023-01-13T10:44:09.397Z,4.70
2023-01-13T10:46:56.323Z,4.55
2023-01-13T10:49:36.483Z,3.92
2023-01-13T10:52:25.666Z,3.72
2023-01-13T10:54:55.296Z,3.33
2023-01-13T10:57:28.485Z,3.50
2023-01-13T10:59:56.570Z,3.88
2023-01-13T11:02:30.929Z,3.88
2023-01-13T11:05:23.003Z,5.40
2023-01-13T11:07:55.104Z,5.32
2023-01-13T11:10:32.737Z,4.25
2023-01-13T11:13:16.213Z,5.68
2023-01-13T11:15:55.724Z,5.60
2023-01-13T11:18:41.281Z,6.65
2023-01-13T11:21:37.993Z,7.07
2023-01-13T11:24:21.060Z,6.60
2023-01-13T11:27:19.142Z,6.18
2023-01-13T11:30:14.928Z,5.93
2023-01-13T11:33:15.894Z,5.80
2023-01-13T11:35:58.128Z,5.35
2023-01-13T11:38:47.938Z,5.50
2023-01-13T11:41:27.748Z,5.40
2023-01-13T11:44:18.008Z,5.63
2023-01-13T11:46:49.325Z,11.85
2023-01-13T11:49:29.557Z,13.05
2023-01-13T11:52:06.986Z,13.60
2023-01-13T11:54:50.148Z,12.85
2023-01-13T11:57:30.280Z,13.32
2023-01-13T12:00:05.967Z,13.45
2023-01-13T12:02:52.622Z,14.52
2023-01-13T12:05:58.828Z,15.05
2023-01-13T12:08:45.048Z,14.13
2023-01-13T12:11:19.028Z,13.65
2023-01-13T12:13:58.936Z,13.30
2023-01-13T12:16:30.491Z,11.18
2023-01-13T12:19:07.815Z,9.30
2023-01-13T12:24:19.055Z,7.70
2023-01-13T12:26:55.108Z,8.13
2023-01-13T12:29:31.208Z,6.72
2023-01-13T12:32:02.263Z,6.38
2023-01-13T12:34:50.003Z,7.40
2023-01-13T12:40:03.400Z,8.38
2023-01-13T12:43:00.892Z,8.60
2023-01-13T12:45:33.763Z,8.47
2023-01-13T12:48:01.984Z,8.25
2023-01-13T12:50:29.652Z,7.40
2023-01-13T12:53:21.462Z,7.43
2023-01-13T12:55:53.254Z,8.13
2023-01-13T12:58:28.476Z,9.55
2023-01-13T13:01:11.106Z,12.02
2023-01-13T13:03:39.663Z,11.73
2023-01-13T13:06:13.789Z,13.23
2023-01-13T13:08:44.758Z,13.68
2023-01-13T13:11:34.534Z,14.07
2023-01-13T13:14:05.017Z,12.32
2023-01-13T13:16:53.005Z,13.18
2023-01-13T13:19:21.456Z,11.98
2023-01-13T13:22:21.532Z,12.88
2023-01-13T13:24:49.264Z,12.50
2023-01-13T13:27:32.305Z,13.68
2023-01-13T13:30:03.467Z,15.50
2023-01-13T13:32:53.554Z,14.23
2023-01-13T13:35:40.513Z,11.77
2023-01-13T13:39:04.120Z,10.83
2023-01-13T13:41:54.771Z,9.50
2023-01-13T13:44:59.707Z,9.02
2023-01-13T13:47:36.021Z,10.30
2023-01-13T13:50:22.456Z,8.43
2023-01-13T13:52:58.761Z,9.70
2023-01-13T13:55:29.113Z,9.05
2023-01-13T13:57:58.033Z,8.57
2023-01-13T14:00:29.852Z,9.10
2023-01-13T14:03:01.624Z,7.32
2023-01-13T14:05:34.067Z,2.90
2023-01-13T14:08:17.929Z,4.78
2023-01-13T14:10:46.615Z,4.75
2023-01-13T14:13:29.539Z,6.30
2023-01-13T14:16:03.445Z,6.60
2023-01-13T14:18:34.770Z,6.35
2023-01-13T14:21:16.849Z,6.53
2023-01-13T14:23:53.867Z,6.35
2023-01-13T14:26:27.787Z,5.88
2023-01-13T14:29:01.943Z,4.90
2023-01-13T14:31:32.145Z,4.97
2023-01-13T14:34:03.509Z,4.50
2023-01-13T14:36:51.659Z,4.68
2023-01-13T14:39:25.240Z,4.53
2023-01-13T14:41:53.922Z,4.32
2023-01-13T14:44:32.469Z,3.65
2023-01-13T14:47:18.128Z,3.92
2023-01-13T14:50:28.337Z,4.20
2023-01-13T14:52:57.607Z,4.05
2023-01-13T14:55:28.982Z,4.38
2023-01-13T14:58:21.556Z,4.70
2023-01-13T15:00:51.290Z,3.88
2023-01-13T15:03:21.541Z,4.60
2023-01-13T15:05:51.577Z,4.55
2023-01-13T15:08:34.712Z,5.95
2023-01-13T15:11:05.967Z,6.70
2023-01-13T15:13:53.141Z,8.10
2023-01-13T15:16:25.229Z,7.40
2023-01-13T15:18:54.947Z,9.10
2023-01-13T15:21:23.565Z,8.07
2023-01-13T15:23:51.556Z,8.07
2023-01-13T15:26:27.888Z,9.50
2023-01-13T15:28:58.373Z,11.55
2023-01-13T15:31:27.715Z,13.20
2023-01-13T15:33:55.552Z,13.85
2023-01-13T15:36:29.990Z,11.15
2023-01-13T15:38:59.573Z,11.07
2023-01-13T15:41:46.114Z,9.55
2023-01-13T15:44:35.130Z,9.20
2023-01-13T15:47:07.642Z,8.25
2023-01-13T15:49:44.134Z,8.85
2023-01-13T15:52:21.666Z,9.10
2023-01-13T15:54:51.164Z,8.57
2023-01-13T15:57:34.486Z,9.88
2023-01-13T16:00:15.866Z,9.50
2023-01-13T16:02:46.612Z,9.70
2023-01-13T16:05:14.736Z,9.20
2023-01-13T16:07:42.539Z,8.25
2023-01-13T16:10:29.279Z,8.13
2023-01-13T16:12:57.431Z,8.32
2023-01-13T16:15:26.236Z,7.75
2023-01-13T16:17:57.544Z,8.00
2023-01-13T16:20:27.065Z,7.68
2023-01-13T16:22:54.885Z,7.82
2023-01-13T16:25:26.168Z,8.02
2023-01-13T16:27:54.366Z,7.45
2023-01-13T16:30:37.336Z,7.18
2023-01-13T16:33:05.184Z,8.05
2023-01-13T16:35:33.265Z,7.28
2023-01-13T16:38:01.178Z,7.93
2023-01-13T16:40:33.528Z,8.38
2023-01-13T16:43:03.789Z,8.25
2023-01-13T16:45:32.159Z,8.68
2023-01-13T16:48:00.444Z,8.38
2023-01-13T16:50:41.112Z,7.65
2023-01-13T16:53:10.601Z,7.13
2023-01-13T16:55:40.349Z,7.57
2023-01-13T16:58:17.507Z,7.43
2023-01-13T17:00:48.207Z,7.03
2023-01-13T17:03:17.027Z,7.32
2023-01-13T17:05:47.758Z,7.80
2023-01-13T17:08:20.223Z,6.38
2023-01-13T17:10:48.310Z,6.97
2023-01-13T17:13:17.340Z,7.18
2023-01-13T17:15:46.222Z,6.78
2023-01-13T17:18:14.063Z,7.60
2023-01-13T17:20:42.266Z,6.95
2023-01-13T17:23:10.124Z,7.53
2023-01-13T17:25:37.951Z,6.60
2023-01-13T17:28:05.822Z,6.70
2023-01-13T17:30:33.731Z,6.70
2023-01-13T17:33:01.583Z,7.20
2023-01-13T17:35:29.384Z,7.20
2023-01-13T17:37:57.116Z,7.90
2023-01-13T17:40:24.940Z,7.38
2023-01-13T17:42:52.944Z,6.43
2023-01-13T17:45:20.742Z,8.30
2023-01-13T17:47:48.489Z,8.15
2023-01-13T17:50:17.552Z,8.45
2023-01-13T17:52:45.223Z,9.20
2023-01-13T17:55:13.282Z,8.95
2023-01-13T17:57:41.183Z,8.77
2023-01-13T18:00:09.669Z,8.65
2023-01-13T18:02:40.341Z,8.15
2023-01-13T18:05:08.596Z,8.85
2023-01-13T18:07:36.385Z,8.18
2023-01-13T18:10:04.552Z,8.48
2023-01-13T18:12:32.285Z,8.43
2023-01-13T18:15:01.573Z,7.47
2023-01-13T18:17:29.449Z,7.93
2023-01-13T18:20:15.805Z,8.07
2023-01-13T18:23:01.812Z,8.07
2023-01-13T18:25:47.810Z,7.15
2023-01-13T18:28:16.078Z,7.65
2023-01-13T18:30:44.653Z,8.25
2023-01-13T18:33:12.539Z,8.43
2023-01-13T18:35:40.450Z,7.57
2023-01-13T18:38:08.742Z,8.00
2023-01-13T18:40:37.616Z,9.13
2023-01-13T18:43:05.430Z,8.23
2023-01-13T18:45:33.372Z,8.63
2023-01-13T18:48:05.452Z,7.93
2023-01-13T18:50:37.238Z,8.10
2023-01-13T18:53:05.033Z,8.00
2023-01-13T18:55:32.913Z,8.43
2023-01-13T18:58:01.038Z,8.30
2023-01-13T19:00:29.602Z,9.25
2023-01-13T19:05:36.103Z,11.10
2023-01-13T19:08:04.907Z,10.93
2023-01-13T19:10:33.361Z,10.57
2023-01-13T19:13:02.906Z,11.23
2023-01-13T19:15:30.890Z,11.82
2023-01-13T19:17:59.078Z,13.05
2023-01-13T19:20:26.870Z,13.18
2023-01-13T19:22:55.092Z,13.52
2023-01-13T19:25:23.100Z,13.88
2023-01-13T19:27:50.917Z,12.98
2023-01-13T19:30:18.896Z,12.23
2023-01-13T19:32:46.818Z,12.95
2023-01-13T19:35:18.249Z,11.98
2023-01-13T19:37:46.135Z,11.95
2023-01-13T19:40:14.289Z,11.45
2023-01-13T19:43:04.620Z,12.15
2023-01-13T19:45:35.329Z,11.65
2023-01-13T19:48:05.820Z,12.02
2023-01-13T19:50:43.985Z,11.95
2023-01-13T19:53:18.585Z,11.32
2023-01-13T19:55:48.697Z,12.88
2023-01-13T19:58:19.051Z,11.95
2023-01-13T20:00:48.636Z,11.85
2023-01-13T20:03:31.395Z,11.85
2023-01-13T20:06:08.389Z,10.93
2023-01-13T20:11:33.135Z,12.55
2023-01-13T20:14:01.684Z,12.82
2023-01-13T20:16:31.081Z,13.15
2023-01-13T20:18:59.049Z,12.55
2023-01-13T20:21:27.221Z,13.02
2023-01-13T20:23:55.369Z,11.82
2023-01-13T20:26:23.375Z,12.48
2023-01-13T20:28:51.231Z,12.63
2023-01-13T20:31:19.077Z,12.75
2023-01-13T20:33:49.854Z,12.50
2023-01-13T20:36:31.261Z,12.68
2023-01-13T20:39:00.106Z,12.60
2023-01-13T20:41:46.766Z,12.77
2023-01-13T20:44:14.936Z,13.18
2023-01-13T20:46:45.023Z,13.65
2023-01-13T20:49:14.999Z,13.90
2023-01-13T20:51:43.424Z,13.57
2023-01-13T20:54:11.324Z,15.55
2023-01-13T20:56:41.182Z,15.27
2023-01-13T20:59:09.707Z,14.10
2023-01-13T21:01:39.195Z,14.75
2023-01-13T21:04:07.887Z,13.85
2023-01-13T21:06:36.440Z,13.52
2023-01-13T21:09:04.655Z,13.57
2023-01-13T21:11:50.922Z,13.57
2023-01-13T21:14:42.700Z,16.05
2023-01-13T21:17:30.748Z,15.30
2023-01-13T21:19:59.107Z,15.23
2023-01-13T21:22:30.102Z,14.90
2023-01-13T21:24:58.762Z,15.07
2023-01-13T21:27:26.534Z,14.48
2023-01-13T21:29:54.426Z,13.75
2023-01-13T21:32:22.675Z,13.52
2023-01-13T21:34:50.667Z,12.15
2023-01-13T21:37:18.816Z,11.45
2023-01-13T21:39:46.554Z,12.52
2023-01-13T21:42:33.839Z,11.70
2023-01-13T21:45:21.104Z,12.57
2023-01-13T21:47:49.489Z,11.98
2023-01-13T21:50:23.401Z,12.23
2023-01-13T21:52:55.444Z,12.20
2023-01-13T21:55:25.539Z,11.65
2023-01-13T21:57:54.593Z,15.35
2023-01-13T22:00:26.978Z,17.45
2023-01-13T22:02:55.159Z,15.75
2023-01-13T22:05:24.633Z,15.48
2023-01-13T22:07:53.088Z,13.10
2023-01-13T22:10:23.164Z,12.35
2023-01-13T22:12:57.757Z,12.55
2023-01-13T22:15:28.427Z,12.05
2023-01-13T22:17:57.307Z,11.38
2023-01-13T22:20:25.454Z,11.55
2023-01-13T22:22:53.355Z,11.27
2023-01-13T22:25:21.947Z,12.18
2023-01-13T22:27:49.761Z,12.13
2023-01-13T22:30:22.064Z,10.85
2023-01-13T22:32:50.888Z,11.05
2023-01-13T22:35:19.173Z,11.38
2023-01-13T22:37:46.871Z,10.68
2023-01-13T22:40:14.800Z,10.93
2023-01-13T22:42:43.164Z,10.48
2023-01-13T22:45:12.993Z,9.52
2023-01-13T22:47:40.803Z,10.98
2023-01-13T22:50:09.796Z,10.80
2023-01-13T22:52:37.563Z,11.35
2023-01-13T22:55:07.093Z,10.10
2023-01-13T22:57:46.982Z,11.18
2023-01-13T23:00:19.360Z,12.48
2023-01-13T23:02:47.282Z,15.68
2023-01-13T23:05:15.213Z,16.33
2023-01-13T23:07:43.068Z,15.75
2023-01-13T23:10:11.585Z,13.60
2023-01-13T23:12:39.421Z,12.88
2023-01-13T23:15:07.666Z,12.23
2023-01-13T23:17:35.392Z,12.45
2023-01-13T23:20:03.701Z,11.98
2023-01-13T23:22:31.494Z,12.10
2023-01-13T23:24:59.201Z,11.35
2023-01-13T23:27:27.025Z,10.65
2023-01-13T23:29:56.048Z,11.57
2023-01-13T23:32:23.882Z,11.82
2023-01-13T23:34:52.583Z,11.40
2023-01-13T23:37:20.329Z,11.65
2023-01-13T23:39:48.027Z,11.77
2023-01-13T23:42:16.205Z,10.77
2023-01-13T23:44:46.538Z,10.70
2023-01-13T23:47:14.337Z,10.52
2023-01-13T23:49:43.061Z,10.90
2023-01-13T23:52:11.105Z,11.23
2023-01-13T23:54:38.816Z,9.85
2023-01-13T23:57:06.635Z,9.32
2023-01-13T23:59:34.631Z,10.15
